sensor_id;sensor_type;location;lat;lon;timestamp;temperature;humidity
9723;DHT22;4900;49.306;8.500;2023-01-06T00:02:03;11.80;85.50
9723;DHT22;4900;49.306;8.500;2023-01-06T00:05:06;11.84;85.26
9723;DHT22;4900;49.306;8.500;2023-01-06T00:08:09;11.84;85.36
9723;DHT22;4900;49.306;8.500;2023-01-06T00:11:13;11.86;85.35
9723;DHT22;4900;49.306;8.500;2023-01-06T00:14:16;11.80;85.49
9723;DHT22;4900;49.306;8.500;2023-01-06T00:17:19;11.80;85.58
9723;DHT22;4900;49.306;8.500;2023-01-06T00:20:23;11.81;85.64
9723;DHT22;4900;49.306;8.500;2023-01-06T00:23:25;11.81;85.72
9723;DHT22;4900;49.306;8.500;2023-01-06T00:26:28;11.83;85.53
9723;DHT22;4900;49.306;8.500;2023-01-06T00:29:31;11.77;85.50
9723;DHT22;4900;49.306;8.500;2023-01-06T00:32:34;11.73;85.64
9723;DHT22;4900;49.306;8.500;2023-01-06T00:35:37;11.69;85.61
9723;DHT22;4900;49.306;8.500;2023-01-06T00:38:40;11.67;85.64
9723;DHT22;4900;49.306;8.500;2023-01-06T00:41:43;11.71;85.60
9723;DHT22;4900;49.306;8.500;2023-01-06T00:45:05;11.70;85.60
9723;DHT22;4900;49.306;8.500;2023-01-06T00:48:08;11.70;85.62
9723;DHT22;4900;49.306;8.500;2023-01-06T00:51:11;11.73;85.52
9723;DHT22;4900;49.306;8.500;2023-01-06T00:54:14;11.71;85.61
9723;DHT22;4900;49.306;8.500;2023-01-06T00:57:18;11.74;85.56
9723;DHT22;4900;49.306;8.500;2023-01-06T01:00:21;11.77;85.60
9723;DHT22;4900;49.306;8.500;2023-01-06T01:03:24;11.76;85.68
9723;DHT22;4900;49.306;8.500;2023-01-06T01:06:27;11.79;85.63
9723;DHT22;4900;49.306;8.500;2023-01-06T01:09:31;11.79;85.74
9723;DHT22;4900;49.306;8.500;2023-01-06T01:12:34;11.77;85.79
9723;DHT22;4900;49.306;8.500;2023-01-06T01:15:37;11.77;85.83
9723;DHT22;4900;49.306;8.500;2023-01-06T01:18:40;11.79;85.69
9723;DHT22;4900;49.306;8.500;2023-01-06T01:21:43;11.79;85.61
9723;DHT22;4900;49.306;8.500;2023-01-06T01:24:46;11.80;85.72
9723;DHT22;4900;49.306;8.500;2023-01-06T01:27:49;11.76;85.84
9723;DHT22;4900;49.306;8.500;2023-01-06T01:31:02;11.76;85.84
9723;DHT22;4900;49.306;8.500;2023-01-06T01:34:05;11.73;86.00
9723;DHT22;4900;49.306;8.500;2023-01-06T01:37:08;11.69;86.16
9723;DHT22;4900;49.306;8.500;2023-01-06T01:40:11;11.71;86.09
9723;DHT22;4900;49.306;8.500;2023-01-06T01:43:15;11.74;86.17
9723;DHT22;4900;49.306;8.500;2023-01-06T01:46:48;11.67;86.23
9723;DHT22;4900;49.306;8.500;2023-01-06T01:49:54;11.71;86.34
9723;DHT22;4900;49.306;8.500;2023-01-06T01:53:17;11.73;86.06
9723;DHT22;4900;49.306;8.500;2023-01-06T01:56:25;11.74;86.14
9723;DHT22;4900;49.306;8.500;2023-01-06T01:59:31;11.71;86.06
9723;DHT22;4900;49.306;8.500;2023-01-06T02:02:36;11.65;86.03
9723;DHT22;4900;49.306;8.500;2023-01-06T02:05:42;11.60;85.82
9723;DHT22;4900;49.306;8.500;2023-01-06T02:12:34;11.63;86.08
9723;DHT22;4900;49.306;8.500;2023-01-06T02:15:37;11.66;86.33
9723;DHT22;4900;49.306;8.500;2023-01-06T02:25:28;11.67;86.63
9723;DHT22;4900;49.306;8.500;2023-01-06T02:31:53;11.63;86.82
9723;DHT22;4900;49.306;8.500;2023-01-06T02:35:28;11.60;86.95
9723;DHT22;4900;49.306;8.500;2023-01-06T02:42:05;11.65;86.89
9723;DHT22;4900;49.306;8.500;2023-01-06T02:45:20;11.62;87.29
9723;DHT22;4900;49.306;8.500;2023-01-06T02:48:39;11.65;87.22
9723;DHT22;4900;49.306;8.500;2023-01-06T02:52:10;11.69;86.94
9723;DHT22;4900;49.306;8.500;2023-01-06T02:55:21;11.70;86.97
9723;DHT22;4900;49.306;8.500;2023-01-06T03:01:45;11.66;87.08
9723;DHT22;4900;49.306;8.500;2023-01-06T03:04:51;11.65;86.94
9723;DHT22;4900;49.306;8.500;2023-01-06T03:07:56;11.65;86.84
9723;DHT22;4900;49.306;8.500;2023-01-06T03:11:02;11.56;86.85
9723;DHT22;4900;49.306;8.500;2023-01-06T03:14:11;11.52;86.94
9723;DHT22;4900;49.306;8.500;2023-01-06T03:17:16;11.49;87.02
9723;DHT22;4900;49.306;8.500;2023-01-06T03:20:19;11.48;87.03
9723;DHT22;4900;49.306;8.500;2023-01-06T03:23:22;11.52;87.18
9723;DHT22;4900;49.306;8.500;2023-01-06T03:26:26;11.51;87.27
9723;DHT22;4900;49.306;8.500;2023-01-06T03:29:29;11.53;87.34
9723;DHT22;4900;49.306;8.500;2023-01-06T03:32:36;11.55;87.47
9723;DHT22;4900;49.306;8.500;2023-01-06T03:36:02;11.55;87.34
9723;DHT22;4900;49.306;8.500;2023-01-06T03:39:17;11.49;87.40
9723;DHT22;4900;49.306;8.500;2023-01-06T03:46:24;11.36;86.92
9723;DHT22;4900;49.306;8.500;2023-01-06T03:49:31;11.32;86.92
9723;DHT22;4900;49.306;8.500;2023-01-06T03:52:40;11.29;87.02
9723;DHT22;4900;49.306;8.500;2023-01-06T03:55:47;11.31;87.05
9723;DHT22;4900;49.306;8.500;2023-01-06T03:58:54;11.28;87.30
9723;DHT22;4900;49.306;8.500;2023-01-06T04:01:59;11.25;87.51
9723;DHT22;4900;49.306;8.500;2023-01-06T04:05:14;11.21;87.58
9723;DHT22;4900;49.306;8.500;2023-01-06T04:08:19;11.24;87.46
9723;DHT22;4900;49.306;8.500;2023-01-06T04:11:22;11.26;87.31
9723;DHT22;4900;49.306;8.500;2023-01-06T04:14:44;11.25;87.22
9723;DHT22;4900;49.306;8.500;2023-01-06T04:17:48;11.21;87.30
9723;DHT22;4900;49.306;8.500;2023-01-06T04:20:51;11.18;87.44
9723;DHT22;4900;49.306;8.500;2023-01-06T04:23:54;11.17;87.64
9723;DHT22;4900;49.306;8.500;2023-01-06T04:26:57;11.17;87.52
9723;DHT22;4900;49.306;8.500;2023-01-06T04:30:00;11.12;87.49
9723;DHT22;4900;49.306;8.500;2023-01-06T04:33:05;11.08;87.56
9723;DHT22;4900;49.306;8.500;2023-01-06T04:36:08;11.08;87.51
9723;DHT22;4900;49.306;8.500;2023-01-06T04:39:11;11.04;87.54
9723;DHT22;4900;49.306;8.500;2023-01-06T04:42:14;11.03;87.71
9723;DHT22;4900;49.306;8.500;2023-01-06T04:45:18;11.04;87.66
9723;DHT22;4900;49.306;8.500;2023-01-06T04:48:21;11.01;87.77
9723;DHT22;4900;49.306;8.500;2023-01-06T04:51:23;11.01;87.90
9723;DHT22;4900;49.306;8.500;2023-01-06T04:54:27;11.00;87.99
9723;DHT22;4900;49.306;8.500;2023-01-06T04:57:29;11.03;87.88
9723;DHT22;4900;49.306;8.500;2023-01-06T05:00:32;11.00;87.87
9723;DHT22;4900;49.306;8.500;2023-01-06T05:03:36;11.03;87.86
9723;DHT22;4900;49.306;8.500;2023-01-06T05:06:40;11.00;87.84
9723;DHT22;4900;49.306;8.500;2023-01-06T05:09:43;10.98;88.04
9723;DHT22;4900;49.306;8.500;2023-01-06T05:12:46;11.00;88.06
9723;DHT22;4900;49.306;8.500;2023-01-06T05:15:48;11.01;87.97
9723;DHT22;4900;49.306;8.500;2023-01-06T05:18:52;11.06;87.95
9723;DHT22;4900;49.306;8.500;2023-01-06T05:21:55;11.07;87.93
9723;DHT22;4900;49.306;8.500;2023-01-06T05:24:58;11.07;87.90
9723;DHT22;4900;49.306;8.500;2023-01-06T05:28:01;11.10;87.88
9723;DHT22;4900;49.306;8.500;2023-01-06T05:31:05;11.03;88.06
9723;DHT22;4900;49.306;8.500;2023-01-06T05:34:11;11.08;87.99
9723;DHT22;4900;49.306;8.500;2023-01-06T05:37:14;11.12;87.85
9723;DHT22;4900;49.306;8.500;2023-01-06T05:40:17;11.17;87.74
9723;DHT22;4900;49.306;8.500;2023-01-06T05:43:20;11.17;87.70
9723;DHT22;4900;49.306;8.500;2023-01-06T05:46:23;11.18;87.59
9723;DHT22;4900;49.306;8.500;2023-01-06T05:49:26;11.18;87.62
9723;DHT22;4900;49.306;8.500;2023-01-06T05:52:29;11.15;87.67
9723;DHT22;4900;49.306;8.500;2023-01-06T05:55:32;11.21;87.67
9723;DHT22;4900;49.306;8.500;2023-01-06T05:58:35;11.22;87.58
9723;DHT22;4900;49.306;8.500;2023-01-06T06:01:38;11.22;87.54
9723;DHT22;4900;49.306;8.500;2023-01-06T06:04:42;11.26;87.51
9723;DHT22;4900;49.306;8.500;2023-01-06T06:07:51;11.25;87.45
9723;DHT22;4900;49.306;8.500;2023-01-06T06:10:55;11.26;87.46
9723;DHT22;4900;49.306;8.500;2023-01-06T06:13:59;11.29;87.46
9723;DHT22;4900;49.306;8.500;2023-01-06T06:17:02;11.24;87.46
9723;DHT22;4900;49.306;8.500;2023-01-06T06:20:06;11.29;87.40
9723;DHT22;4900;49.306;8.500;2023-01-06T06:23:09;11.31;87.36
9723;DHT22;4900;49.306;8.500;2023-01-06T06:26:12;11.31;87.35
9723;DHT22;4900;49.306;8.500;2023-01-06T06:29:14;11.35;87.22
9723;DHT22;4900;49.306;8.500;2023-01-06T06:32:17;11.28;87.30
9723;DHT22;4900;49.306;8.500;2023-01-06T06:35:20;11.26;87.36
9723;DHT22;4900;49.306;8.500;2023-01-06T06:38:23;11.26;87.42
9723;DHT22;4900;49.306;8.500;2023-01-06T06:41:26;11.24;87.33
9723;DHT22;4900;49.306;8.500;2023-01-06T06:44:29;11.25;87.34
9723;DHT22;4900;49.306;8.500;2023-01-06T06:47:32;11.29;87.16
9723;DHT22;4900;49.306;8.500;2023-01-06T06:50:35;11.26;87.08
9723;DHT22;4900;49.306;8.500;2023-01-06T06:53:38;11.28;87.09
9723;DHT22;4900;49.306;8.500;2023-01-06T06:56:41;11.24;87.05
9723;DHT22;4900;49.306;8.500;2023-01-06T06:59:44;11.21;87.20
9723;DHT22;4900;49.306;8.500;2023-01-06T07:02:48;11.08;87.31
9723;DHT22;4900;49.306;8.500;2023-01-06T07:05:51;11.17;87.22
9723;DHT22;4900;49.306;8.500;2023-01-06T07:08:55;11.17;87.01
9723;DHT22;4900;49.306;8.500;2023-01-06T07:11:58;11.18;86.81
9723;DHT22;4900;49.306;8.500;2023-01-06T07:15:01;11.12;86.56
9723;DHT22;4900;49.306;8.500;2023-01-06T07:18:05;11.18;86.26
9723;DHT22;4900;49.306;8.500;2023-01-06T07:21:09;11.21;85.95
9723;DHT22;4900;49.306;8.500;2023-01-06T07:24:12;11.19;85.68
9723;DHT22;4900;49.306;8.500;2023-01-06T07:27:15;11.04;85.25
9723;DHT22;4900;49.306;8.500;2023-01-06T07:30:18;11.11;84.92
9723;DHT22;4900;49.306;8.500;2023-01-06T07:33:21;11.10;84.66
9723;DHT22;4900;49.306;8.500;2023-01-06T07:36:24;11.08;84.35
9723;DHT22;4900;49.306;8.500;2023-01-06T07:39:27;11.08;84.05
9723;DHT22;4900;49.306;8.500;2023-01-06T07:42:30;11.06;83.71
9723;DHT22;4900;49.306;8.500;2023-01-06T07:45:33;11.08;83.54
9723;DHT22;4900;49.306;8.500;2023-01-06T07:48:36;11.10;83.37
9723;DHT22;4900;49.306;8.500;2023-01-06T07:51:39;11.11;83.29
9723;DHT22;4900;49.306;8.500;2023-01-06T07:54:42;11.11;83.11
9723;DHT22;4900;49.306;8.500;2023-01-06T07:57:45;11.12;82.90
9723;DHT22;4900;49.306;8.500;2023-01-06T08:00:48;11.17;82.69
9723;DHT22;4900;49.306;8.500;2023-01-06T08:03:51;11.21;82.54
9723;DHT22;4900;49.306;8.500;2023-01-06T08:06:54;11.25;82.62
9723;DHT22;4900;49.306;8.500;2023-01-06T08:09:57;11.31;82.47
9723;DHT22;4900;49.306;8.500;2023-01-06T08:13:00;11.34;82.36
9723;DHT22;4900;49.306;8.500;2023-01-06T08:16:04;11.41;82.26
9723;DHT22;4900;49.306;8.500;2023-01-06T08:19:07;11.51;82.16
9723;DHT22;4900;49.306;8.500;2023-01-06T08:22:10;11.48;82.09
9723;DHT22;4900;49.306;8.500;2023-01-06T08:25:13;11.51;82.02
9723;DHT22;4900;49.306;8.500;2023-01-06T08:28:16;11.55;81.91
9723;DHT22;4900;49.306;8.500;2023-01-06T08:31:20;11.63;81.92
9723;DHT22;4900;49.306;8.500;2023-01-06T08:34:24;11.73;81.88
9723;DHT22;4900;49.306;8.500;2023-01-06T08:37:26;11.74;81.79
9723;DHT22;4900;49.306;8.500;2023-01-06T08:40:30;11.76;81.65
9723;DHT22;4900;49.306;8.500;2023-01-06T08:43:32;11.79;81.55
9723;DHT22;4900;49.306;8.500;2023-01-06T08:46:36;11.83;81.40
9723;DHT22;4900;49.306;8.500;2023-01-06T08:49:39;11.87;81.11
9723;DHT22;4900;49.306;8.500;2023-01-06T08:52:42;11.87;80.92
9723;DHT22;4900;49.306;8.500;2023-01-06T08:55:45;11.90;80.73
9723;DHT22;4900;49.306;8.500;2023-01-06T08:58:52;11.88;80.62
9723;DHT22;4900;49.306;8.500;2023-01-06T09:01:55;11.98;80.50
9723;DHT22;4900;49.306;8.500;2023-01-06T09:04:58;12.09;80.25
9723;DHT22;4900;49.306;8.500;2023-01-06T09:08:01;12.17;80.06
9723;DHT22;4900;49.306;8.500;2023-01-06T09:11:05;12.22;79.73
9723;DHT22;4900;49.306;8.500;2023-01-06T09:14:10;12.24;79.31
9723;DHT22;4900;49.306;8.500;2023-01-06T09:17:13;12.33;79.14
9723;DHT22;4900;49.306;8.500;2023-01-06T09:20:16;12.45;78.68
9723;DHT22;4900;49.306;8.500;2023-01-06T09:23:19;12.53;78.18
9723;DHT22;4900;49.306;8.500;2023-01-06T09:26:24;12.69;77.54
9723;DHT22;4900;49.306;8.500;2023-01-06T09:29:27;12.88;76.72
9723;DHT22;4900;49.306;8.500;2023-01-06T09:32:30;13.14;76.58
9723;DHT22;4900;49.306;8.500;2023-01-06T09:35:33;13.35;75.55
9723;DHT22;4900;49.306;8.500;2023-01-06T09:38:36;13.46;75.10
9723;DHT22;4900;49.306;8.500;2023-01-06T09:45:07;13.67;73.58
9723;DHT22;4900;49.306;8.500;2023-01-06T09:48:17;13.70;72.56
9723;DHT22;4900;49.306;8.500;2023-01-06T09:51:24;13.86;72.85
9723;DHT22;4900;49.306;8.500;2023-01-06T09:54:36;13.77;72.21
9723;DHT22;4900;49.306;8.500;2023-01-06T09:57:47;13.74;71.91
9723;DHT22;4900;49.306;8.500;2023-01-06T10:00:54;13.87;71.75
9723;DHT22;4900;49.306;8.500;2023-01-06T10:03:58;13.84;71.81
9723;DHT22;4900;49.306;8.500;2023-01-06T10:07:12;13.73;71.53
9723;DHT22;4900;49.306;8.500;2023-01-06T10:10:31;13.71;72.01
9723;DHT22;4900;49.306;8.500;2023-01-06T10:13:41;13.86;71.98
9723;DHT22;4900;49.306;8.500;2023-01-06T10:20:51;14.08;70.53
9723;DHT22;4900;49.306;8.500;2023-01-06T10:24:06;14.29;69.98
9723;DHT22;4900;49.306;8.500;2023-01-06T10:27:30;14.39;69.95
9723;DHT22;4900;49.306;8.500;2023-01-06T10:30:40;14.55;68.98
9723;DHT22;4900;49.306;8.500;2023-01-06T10:33:50;14.56;68.74
9723;DHT22;4900;49.306;8.500;2023-01-06T10:43:22;14.39;68.30
9723;DHT22;4900;49.306;8.500;2023-01-06T10:46:32;14.33;68.39
9723;DHT22;4900;49.306;8.500;2023-01-06T10:49:36;14.42;68.11
9723;DHT22;4900;49.306;8.500;2023-01-06T10:52:40;14.30;68.37
9723;DHT22;4900;49.306;8.500;2023-01-06T10:55:53;14.18;68.35
9723;DHT22;4900;49.306;8.500;2023-01-06T10:59:00;14.12;68.13
9723;DHT22;4900;49.306;8.500;2023-01-06T11:02:21;13.94;68.32
9723;DHT22;4900;49.306;8.500;2023-01-06T11:05:26;13.74;69.07
9723;DHT22;4900;49.306;8.500;2023-01-06T11:08:30;13.77;68.84
9723;DHT22;4900;49.306;8.500;2023-01-06T11:11:45;13.63;69.08
9723;DHT22;4900;49.306;8.500;2023-01-06T11:14:58;13.77;68.80
9723;DHT22;4900;49.306;8.500;2023-01-06T11:18:03;13.66;69.05
9723;DHT22;4900;49.306;8.500;2023-01-06T11:21:12;13.76;68.94
9723;DHT22;4900;49.306;8.500;2023-01-06T11:24:21;13.88;68.82
9723;DHT22;4900;49.306;8.500;2023-01-06T11:27:24;13.83;68.73
9723;DHT22;4900;49.306;8.500;2023-01-06T11:30:27;13.84;68.59
9723;DHT22;4900;49.306;8.500;2023-01-06T11:33:33;13.93;68.59
9723;DHT22;4900;49.306;8.500;2023-01-06T11:36:42;13.91;68.74
9723;DHT22;4900;49.306;8.500;2023-01-06T11:39:47;13.86;69.20
9723;DHT22;4900;49.306;8.500;2023-01-06T11:42:53;13.95;68.84
9723;DHT22;4900;49.306;8.500;2023-01-06T11:46:00;13.81;68.61
9723;DHT22;4900;49.306;8.500;2023-01-06T11:49:11;13.94;68.37
9723;DHT22;4900;49.306;8.500;2023-01-06T11:52:27;13.93;67.97
9723;DHT22;4900;49.306;8.500;2023-01-06T11:55:32;13.95;67.52
9723;DHT22;4900;49.306;8.500;2023-01-06T12:01:57;13.91;66.89
9723;DHT22;4900;49.306;8.500;2023-01-06T12:05:04;14.00;67.02
9723;DHT22;4900;49.306;8.500;2023-01-06T12:08:30;13.94;67.43
9723;DHT22;4900;49.306;8.500;2023-01-06T12:14:46;13.98;66.90
9723;DHT22;4900;49.306;8.500;2023-01-06T12:20:54;13.95;66.84
9723;DHT22;4900;49.306;8.500;2023-01-06T12:23:59;13.86;67.15
9723;DHT22;4900;49.306;8.500;2023-01-06T12:27:04;13.81;67.11
9723;DHT22;4900;49.306;8.500;2023-01-06T12:30:20;14.12;67.21
9723;DHT22;4900;49.306;8.500;2023-01-06T12:33:34;14.30;66.93
9723;DHT22;4900;49.306;8.500;2023-01-06T12:36:44;14.48;66.76
9723;DHT22;4900;49.306;8.500;2023-01-06T12:40:03;14.53;65.95
9723;DHT22;4900;49.306;8.500;2023-01-06T12:43:19;14.46;65.97
9723;DHT22;4900;49.306;8.500;2023-01-06T12:46:37;14.56;65.27
9723;DHT22;4900;49.306;8.500;2023-01-06T12:49:47;14.66;64.63
9723;DHT22;4900;49.306;8.500;2023-01-06T12:53:07;14.69;64.82
9723;DHT22;4900;49.306;8.500;2023-01-06T13:07:09;14.78;64.88
9723;DHT22;4900;49.306;8.500;2023-01-06T13:10:29;14.53;65.04
9723;DHT22;4900;49.306;8.500;2023-01-06T13:13:52;14.59;65.16
9723;DHT22;4900;49.306;8.500;2023-01-06T13:30:57;14.60;65.61
9723;DHT22;4900;49.306;8.500;2023-01-06T13:37:37;14.70;65.82
9723;DHT22;4900;49.306;8.500;2023-01-06T13:40:42;14.52;65.60
9723;DHT22;4900;49.306;8.500;2023-01-06T13:43:49;14.42;65.80
9723;DHT22;4900;49.306;8.500;2023-01-06T13:47:04;14.48;65.88
9723;DHT22;4900;49.306;8.500;2023-01-06T13:50:13;14.50;66.37
9723;DHT22;4900;49.306;8.500;2023-01-06T13:53:19;14.21;66.53
9723;DHT22;4900;49.306;8.500;2023-01-06T13:56:25;13.97;66.78
9723;DHT22;4900;49.306;8.500;2023-01-06T13:59:28;14.02;67.00
9723;DHT22;4900;49.306;8.500;2023-01-06T14:08:50;13.86;67.42
9723;DHT22;4900;49.306;8.500;2023-01-06T14:12:09;13.90;67.62
9723;DHT22;4900;49.306;8.500;2023-01-06T14:15:33;13.66;67.87
9723;DHT22;4900;49.306;8.500;2023-01-06T14:18:47;13.50;68.21
9723;DHT22;4900;49.306;8.500;2023-01-06T14:22:15;13.39;68.47
9723;DHT22;4900;49.306;8.500;2023-01-06T14:25:21;13.42;68.50
9723;DHT22;4900;49.306;8.500;2023-01-06T14:28:32;13.29;68.75
9723;DHT22;4900;49.306;8.500;2023-01-06T14:31:36;13.28;68.82
9723;DHT22;4900;49.306;8.500;2023-01-06T14:37:48;13.14;69.34
9723;DHT22;4900;49.306;8.500;2023-01-06T14:40:56;13.03;69.65
9723;DHT22;4900;49.306;8.500;2023-01-06T14:44:04;13.12;69.52
9723;DHT22;4900;49.306;8.500;2023-01-06T14:47:39;13.04;69.81
9723;DHT22;4900;49.306;8.500;2023-01-06T14:50:51;13.05;69.84
9723;DHT22;4900;49.306;8.500;2023-01-06T14:54:00;13.00;70.03
9723;DHT22;4900;49.306;8.500;2023-01-06T14:57:22;12.96;70.19
9723;DHT22;4900;49.306;8.500;2023-01-06T15:00:30;12.91;70.35
9723;DHT22;4900;49.306;8.500;2023-01-06T15:03:35;12.90;70.55
9723;DHT22;4900;49.306;8.500;2023-01-06T15:06:38;12.81;70.73
9723;DHT22;4900;49.306;8.500;2023-01-06T15:09:40;12.79;70.89
9723;DHT22;4900;49.306;8.500;2023-01-06T15:12:44;12.71;71.09
9723;DHT22;4900;49.306;8.500;2023-01-06T15:16:08;12.71;70.95
9723;DHT22;4900;49.306;8.500;2023-01-06T15:19:16;12.69;71.18
9723;DHT22;4900;49.306;8.500;2023-01-06T15:22:22;12.63;71.44
9723;DHT22;4900;49.306;8.500;2023-01-06T15:25:27;12.63;71.51
9723;DHT22;4900;49.306;8.500;2023-01-06T15:28:32;12.59;71.65
9723;DHT22;4900;49.306;8.500;2023-01-06T15:31:37;12.48;72.01
9723;DHT22;4900;49.306;8.500;2023-01-06T15:34:41;12.52;71.96
9723;DHT22;4900;49.306;8.500;2023-01-06T15:37:47;12.48;72.10
9723;DHT22;4900;49.306;8.500;2023-01-06T15:40:53;12.48;72.21
9723;DHT22;4900;49.306;8.500;2023-01-06T15:43:58;12.41;72.46
9723;DHT22;4900;49.306;8.500;2023-01-06T15:47:05;12.41;72.68
9723;DHT22;4900;49.306;8.500;2023-01-06T15:50:19;12.32;73.09
9723;DHT22;4900;49.306;8.500;2023-01-06T15:53:25;12.28;73.13
9723;DHT22;4900;49.306;8.500;2023-01-06T15:56:30;12.31;73.14
9723;DHT22;4900;49.306;8.500;2023-01-06T15:59:33;12.28;73.34
9723;DHT22;4900;49.306;8.500;2023-01-06T16:02:36;12.18;73.57
9723;DHT22;4900;49.306;8.500;2023-01-06T16:05:41;12.20;73.68
9723;DHT22;4900;49.306;8.500;2023-01-06T16:08:45;12.17;73.73
9723;DHT22;4900;49.306;8.500;2023-01-06T16:12:17;12.24;73.74
9723;DHT22;4900;49.306;8.500;2023-01-06T16:15:33;12.15;73.81
9723;DHT22;4900;49.306;8.500;2023-01-06T16:18:37;12.17;73.94
9723;DHT22;4900;49.306;8.500;2023-01-06T16:21:42;12.14;74.09
9723;DHT22;4900;49.306;8.500;2023-01-06T16:24:49;12.11;74.21
9723;DHT22;4900;49.306;8.500;2023-01-06T16:27:55;12.13;74.31
9723;DHT22;4900;49.306;8.500;2023-01-06T16:34:31;12.02;74.68
9723;DHT22;4900;49.306;8.500;2023-01-06T16:37:34;12.02;74.90
9723;DHT22;4900;49.306;8.500;2023-01-06T16:40:37;12.01;74.87
9723;DHT22;4900;49.306;8.500;2023-01-06T16:43:41;11.90;75.16
9723;DHT22;4900;49.306;8.500;2023-01-06T16:46:44;11.95;75.16
9723;DHT22;4900;49.306;8.500;2023-01-06T16:49:47;11.94;75.12
9723;DHT22;4900;49.306;8.500;2023-01-06T16:53:02;11.87;75.32
9723;DHT22;4900;49.306;8.500;2023-01-06T16:56:17;11.87;75.33
9723;DHT22;4900;49.306;8.500;2023-01-06T16:59:20;11.81;75.69
9723;DHT22;4900;49.306;8.500;2023-01-06T17:02:23;11.81;75.85
9723;DHT22;4900;49.306;8.500;2023-01-06T17:05:28;11.81;75.74
9723;DHT22;4900;49.306;8.500;2023-01-06T17:08:36;11.83;75.63
9723;DHT22;4900;49.306;8.500;2023-01-06T17:11:39;11.80;75.82
9723;DHT22;4900;49.306;8.500;2023-01-06T17:14:42;11.83;75.77
9723;DHT22;4900;49.306;8.500;2023-01-06T17:17:45;11.81;75.88
9723;DHT22;4900;49.306;8.500;2023-01-06T17:20:50;11.77;75.98
9723;DHT22;4900;49.306;8.500;2023-01-06T17:23:58;11.77;75.98
9723;DHT22;4900;49.306;8.500;2023-01-06T17:27:23;11.81;75.90
9723;DHT22;4900;49.306;8.500;2023-01-06T17:30:27;11.79;75.87
9723;DHT22;4900;49.306;8.500;2023-01-06T17:33:30;11.76;75.86
9723;DHT22;4900;49.306;8.500;2023-01-06T17:36:38;11.74;75.85
9723;DHT22;4900;49.306;8.500;2023-01-06T17:39:43;11.71;76.02
9723;DHT22;4900;49.306;8.500;2023-01-06T17:43:00;11.71;76.00
9723;DHT22;4900;49.306;8.500;2023-01-06T17:46:34;11.70;75.88
9723;DHT22;4900;49.306;8.500;2023-01-06T17:49:38;11.76;75.84
9723;DHT22;4900;49.306;8.500;2023-01-06T17:52:41;11.69;75.99
9723;DHT22;4900;49.306;8.500;2023-01-06T17:55:48;11.70;75.86
9723;DHT22;4900;49.306;8.500;2023-01-06T17:58:51;11.73;75.83
9723;DHT22;4900;49.306;8.500;2023-01-06T18:01:54;11.73;75.79
9723;DHT22;4900;49.306;8.500;2023-01-06T18:05:01;11.73;75.65
9723;DHT22;4900;49.306;8.500;2023-01-06T18:08:14;11.74;75.61
9723;DHT22;4900;49.306;8.500;2023-01-06T18:11:24;11.73;75.63
9723;DHT22;4900;49.306;8.500;2023-01-06T18:14:32;11.73;75.47
9723;DHT22;4900;49.306;8.500;2023-01-06T18:17:37;11.70;75.62
9723;DHT22;4900;49.306;8.500;2023-01-06T18:24:28;11.67;75.53
9723;DHT22;4900;49.306;8.500;2023-01-06T18:27:33;11.65;75.57
9723;DHT22;4900;49.306;8.500;2023-01-06T18:30:36;11.66;75.49
9723;DHT22;4900;49.306;8.500;2023-01-06T18:33:40;11.63;75.39
9723;DHT22;4900;49.306;8.500;2023-01-06T18:36:43;11.66;75.45
9723;DHT22;4900;49.306;8.500;2023-01-06T18:39:48;11.66;75.32
9723;DHT22;4900;49.306;8.500;2023-01-06T18:42:53;11.63;75.46
9723;DHT22;4900;49.306;8.500;2023-01-06T18:46:00;11.59;75.56
9723;DHT22;4900;49.306;8.500;2023-01-06T18:49:09;11.56;75.44
9723;DHT22;4900;49.306;8.500;2023-01-06T18:55:51;11.55;75.44
9723;DHT22;4900;49.306;8.500;2023-01-06T18:58:57;11.53;75.49
9723;DHT22;4900;49.306;8.500;2023-01-06T19:02:01;11.53;75.48
9723;DHT22;4900;49.306;8.500;2023-01-06T19:05:09;11.51;75.43
9723;DHT22;4900;49.306;8.500;2023-01-06T19:08:25;11.45;75.50
9723;DHT22;4900;49.306;8.500;2023-01-06T19:11:32;11.48;75.43
9723;DHT22;4900;49.306;8.500;2023-01-06T19:14:38;11.45;75.52
9723;DHT22;4900;49.306;8.500;2023-01-06T19:17:43;11.41;75.29
9723;DHT22;4900;49.306;8.500;2023-01-06T19:20:47;11.41;75.42
9723;DHT22;4900;49.306;8.500;2023-01-06T19:23:50;11.36;75.41
9723;DHT22;4900;49.306;8.500;2023-01-06T19:26:57;11.38;75.27
9723;DHT22;4900;49.306;8.500;2023-01-06T19:30:29;11.24;75.64
9723;DHT22;4900;49.306;8.500;2023-01-06T19:33:39;11.21;75.77
9723;DHT22;4900;49.306;8.500;2023-01-06T19:36:47;11.15;75.93
9723;DHT22;4900;49.306;8.500;2023-01-06T19:39:55;11.07;76.07
9723;DHT22;4900;49.306;8.500;2023-01-06T19:43:10;11.03;76.17
9723;DHT22;4900;49.306;8.500;2023-01-06T19:46:22;10.96;76.26
9723;DHT22;4900;49.306;8.500;2023-01-06T19:49:36;10.90;76.33
9723;DHT22;4900;49.306;8.500;2023-01-06T19:52:40;10.80;76.54
9723;DHT22;4900;49.306;8.500;2023-01-06T19:55:43;10.68;76.79
9723;DHT22;4900;49.306;8.500;2023-01-06T19:58:52;10.63;77.10
9723;DHT22;4900;49.306;8.500;2023-01-06T20:05:11;10.45;77.59
9723;DHT22;4900;49.306;8.500;2023-01-06T20:08:13;10.39;77.88
9723;DHT22;4900;49.306;8.500;2023-01-06T20:11:17;10.36;78.02
9723;DHT22;4900;49.306;8.500;2023-01-06T20:14:20;10.34;78.00
9723;DHT22;4900;49.306;8.500;2023-01-06T20:17:23;10.36;78.03
9723;DHT22;4900;49.306;8.500;2023-01-06T20:20:27;10.39;77.96
9723;DHT22;4900;49.306;8.500;2023-01-06T20:23:30;10.42;77.74
9723;DHT22;4900;49.306;8.500;2023-01-06T20:26:33;10.48;77.62
9723;DHT22;4900;49.306;8.500;2023-01-06T20:29:37;10.55;77.38
9723;DHT22;4900;49.306;8.500;2023-01-06T20:32:40;10.55;77.22
9723;DHT22;4900;49.306;8.500;2023-01-06T20:35:43;10.53;77.24
9723;DHT22;4900;49.306;8.500;2023-01-06T20:38:45;10.58;77.14
9723;DHT22;4900;49.306;8.500;2023-01-06T20:41:48;10.53;77.16
9723;DHT22;4900;49.306;8.500;2023-01-06T20:44:51;10.59;77.16
9723;DHT22;4900;49.306;8.500;2023-01-06T20:47:54;10.58;77.09
9723;DHT22;4900;49.306;8.500;2023-01-06T20:50:57;10.62;77.11
9723;DHT22;4900;49.306;8.500;2023-01-06T20:54:01;10.65;77.09
9723;DHT22;4900;49.306;8.500;2023-01-06T20:57:04;10.69;77.01
9723;DHT22;4900;49.306;8.500;2023-01-06T21:00:08;10.70;76.90
9723;DHT22;4900;49.306;8.500;2023-01-06T21:03:12;10.69;76.84
9723;DHT22;4900;49.306;8.500;2023-01-06T21:06:15;10.72;76.85
9723;DHT22;4900;49.306;8.500;2023-01-06T21:09:18;10.69;76.88
9723;DHT22;4900;49.306;8.500;2023-01-06T21:12:21;10.73;76.84
9723;DHT22;4900;49.306;8.500;2023-01-06T21:15:24;10.73;76.74
9723;DHT22;4900;49.306;8.500;2023-01-06T21:18:30;10.75;76.71
9723;DHT22;4900;49.306;8.500;2023-01-06T21:21:33;10.76;76.69
9723;DHT22;4900;49.306;8.500;2023-01-06T21:24:36;10.76;76.70
9723;DHT22;4900;49.306;8.500;2023-01-06T21:27:39;10.73;76.65
9723;DHT22;4900;49.306;8.500;2023-01-06T21:30:42;10.80;76.61
9723;DHT22;4900;49.306;8.500;2023-01-06T21:33:44;10.73;76.61
9723;DHT22;4900;49.306;8.500;2023-01-06T21:36:47;10.77;76.59
9723;DHT22;4900;49.306;8.500;2023-01-06T21:39:50;10.75;76.60
9723;DHT22;4900;49.306;8.500;2023-01-06T21:42:53;10.75;76.57
9723;DHT22;4900;49.306;8.500;2023-01-06T21:46:11;10.72;76.65
9723;DHT22;4900;49.306;8.500;2023-01-06T21:49:14;10.73;76.69
9723;DHT22;4900;49.306;8.500;2023-01-06T21:52:17;10.75;76.65
9723;DHT22;4900;49.306;8.500;2023-01-06T21:55:21;10.79;76.65
9723;DHT22;4900;49.306;8.500;2023-01-06T21:58:24;10.80;76.65